EJA268 KBDL-KCMH
Flight info
| Callsign | EJA268 |
|---|---|
| Flight time | 1h 30m |
| Altitude | 38000 |
| Route | VEERS PWL IGN Q480 AIR CLPRR3 |
| Aircraft | CL60/M-SBDE1E2E3FGHIJ1J4J5J7M3RWXYZ/LB1V1D1 |
Departure
| Time | 2026-05-08 23:02 |
|---|---|
| Airport | Bradley International Airport (KBDL) |
Arrival
| Time | 2026-05-09 00:33 |
|---|---|
| Airport | John Glenn Columbus International Airport (KCMH) |
| Time | Latitude | Longitude | Altitude | Speed | Heading |
|---|---|---|---|---|---|
| 2026-05-08 22:07 | 41.94172 | -72.67727 | 183 ft | 0 kts | 32° |
| 2026-05-08 22:56 | 41.94172 | -72.67726 | 183 ft | 0 kts | 32° |
| 2026-05-08 22:57 | 41.94178 | -72.67722 | 183 ft | 5 kts | 28° |
| 2026-05-08 22:57 | 41.94211 | -72.67744 | 183 ft | 9 kts | 271° |
| 2026-05-08 22:57 | 41.94194 | -72.67832 | 183 ft | 11 kts | 195° |
| 2026-05-08 22:57 | 41.94111 | -72.67833 | 184 ft | 12 kts | 179° |
| 2026-05-08 22:58 | 41.94014 | -72.67831 | 185 ft | 14 kts | 178° |
| 2026-05-08 22:58 | 41.93917 | -72.67829 | 186 ft | 14 kts | 180° |
| 2026-05-08 22:58 | 41.93810 | -72.67831 | 187 ft | 16 kts | 176° |
| 2026-05-08 22:58 | 41.93688 | -72.67825 | 188 ft | 18 kts | 179° |
| 2026-05-08 22:59 | 41.93550 | -72.67820 | 188 ft | 21 kts | 181° |
| 2026-05-08 22:59 | 41.93412 | -72.67816 | 188 ft | 15 kts | 180° |
| 2026-05-08 22:59 | 41.93311 | -72.67757 | 187 ft | 18 kts | 133° |
| 2026-05-08 22:59 | 41.93225 | -72.67636 | 186 ft | 12 kts | 134° |
| 2026-05-08 23:00 | 41.93154 | -72.67539 | 186 ft | 16 kts | 134° |
| 2026-05-08 23:00 | 41.93064 | -72.67426 | 185 ft | 10 kts | 159° |
| 2026-05-08 23:00 | 41.93002 | -72.67459 | 185 ft | 0 kts | 226° |
| 2026-05-08 23:01 | 41.92981 | -72.67490 | 185 ft | 10 kts | 228° |
| 2026-05-08 23:01 | 41.92953 | -72.67563 | 184 ft | 8 kts | 299° |
| 2026-05-08 23:01 | 41.92968 | -72.67584 | 185 ft | 0 kts | 317° |
| 2026-05-08 23:01 | 41.93023 | -72.67655 | 185 ft | 0 kts | 315° |
| 2026-05-08 23:02 | 41.93214 | -72.67916 | 187 ft | 89 kts | 314° |
| 2026-05-08 23:02 | 41.93860 | -72.68784 | 321 ft | 162 kts | 314° |
| 2026-05-08 23:02 | 41.94693 | -72.69867 | 1236 ft | 177 kts | 314° |
| 2026-05-08 23:03 | 41.95602 | -72.71033 | 2253 ft | 191 kts | 314° |
| 2026-05-08 23:03 | 41.96566 | -72.72276 | 3230 ft | 198 kts | 315° |
| 2026-05-08 23:03 | 41.97555 | -72.73564 | 3799 ft | 200 kts | 314° |
| 2026-05-08 23:03 | 41.98558 | -72.74857 | 3991 ft | 199 kts | 314° |
| 2026-05-08 23:04 | 41.99423 | -72.76288 | 4005 ft | 196 kts | 294° |
| 2026-05-08 23:04 | 41.99556 | -72.78079 | 4003 ft | 197 kts | 263° |
| 2026-05-08 23:04 | 41.99258 | -72.79876 | 4013 ft | 198 kts | 260° |
| 2026-05-08 23:04 | 41.98957 | -72.81657 | 4228 ft | 190 kts | 260° |
| 2026-05-08 23:05 | 41.98670 | -72.83387 | 5149 ft | 204 kts | 261° |
| 2026-05-08 23:05 | 41.98352 | -72.85330 | 6152 ft | 229 kts | 261° |
| 2026-05-08 23:05 | 41.97996 | -72.87493 | 7153 ft | 250 kts | 261° |
| 2026-05-08 23:05 | 41.97611 | -72.89804 | 8164 ft | 256 kts | 261° |
| 2026-05-08 23:06 | 41.97229 | -72.92078 | 9156 ft | 256 kts | 261° |
| 2026-05-08 23:06 | 41.96841 | -72.94385 | 10161 ft | 255 kts | 261° |
| 2026-05-08 23:06 | 41.96453 | -72.96697 | 11164 ft | 256 kts | 261° |
| 2026-05-08 23:06 | 41.96067 | -72.98988 | 12169 ft | 259 kts | 262° |
| 2026-05-08 23:07 | 41.95670 | -73.01354 | 13196 ft | 262 kts | 262° |
| 2026-05-08 23:07 | 41.95275 | -73.03707 | 14166 ft | 265 kts | 262° |
| 2026-05-08 23:07 | 41.94863 | -73.06162 | 15168 ft | 275 kts | 262° |
| 2026-05-08 23:07 | 41.94441 | -73.08688 | 15909 ft | 292 kts | 262° |
| 2026-05-08 23:08 | 41.93984 | -73.11419 | 16592 ft | 309 kts | 262° |
| 2026-05-08 23:08 | 41.93499 | -73.14304 | 17265 ft | 325 kts | 262° |
| 2026-05-08 23:08 | 41.92995 | -73.17282 | 18017 ft | 335 kts | 262° |
| 2026-05-08 23:08 | 41.92473 | -73.20352 | 18879 ft | 342 kts | 262° |
| 2026-05-08 23:09 | 41.91943 | -73.23461 | 19780 ft | 346 kts | 262° |
| 2026-05-08 23:09 | 41.91410 | -73.26585 | 20691 ft | 349 kts | 262° |
| 2026-05-08 23:09 | 41.90589 | -73.29692 | 21564 ft | 360 kts | 249° |
| 2026-05-08 23:09 | 41.89321 | -73.32588 | 22354 ft | 366 kts | 246° |
| 2026-05-08 23:10 | 41.88007 | -73.35519 | 23107 ft | 369 kts | 246° |
| 2026-05-08 23:10 | 41.86697 | -73.38448 | 23783 ft | 373 kts | 246° |
| 2026-05-08 23:10 | 41.85354 | -73.41448 | 24499 ft | 377 kts | 246° |
| 2026-05-08 23:10 | 41.84009 | -73.44450 | 25218 ft | 379 kts | 246° |
| 2026-05-08 23:11 | 41.82653 | -73.47472 | 25903 ft | 381 kts | 246° |
| 2026-05-08 23:11 | 41.81280 | -73.50532 | 26546 ft | 383 kts | 246° |
| 2026-05-08 23:11 | 41.79914 | -73.53575 | 27108 ft | 387 kts | 246° |
| 2026-05-08 23:11 | 41.78534 | -73.56644 | 27640 ft | 389 kts | 246° |
| 2026-05-08 23:12 | 41.77125 | -73.59774 | 28164 ft | 392 kts | 246° |
| 2026-05-08 23:12 | 41.75692 | -73.62860 | 28707 ft | 394 kts | 245° |
| 2026-05-08 23:12 | 41.74234 | -73.65961 | 29205 ft | 395 kts | 245° |
| 2026-05-08 23:12 | 41.72773 | -73.69065 | 29609 ft | 399 kts | 245° |
| 2026-05-08 23:13 | 41.71288 | -73.72221 | 30023 ft | 401 kts | 245° |
| 2026-05-08 23:13 | 41.69814 | -73.75349 | 30398 ft | 403 kts | 244° |
| 2026-05-08 23:13 | 41.68307 | -73.78540 | 30866 ft | 402 kts | 244° |
| 2026-05-08 23:13 | 41.66836 | -73.81628 | 31507 ft | 397 kts | 243° |
| 2026-05-08 23:14 | 41.65111 | -73.84521 | 32173 ft | 397 kts | 237° |
| 2026-05-08 23:14 | 41.63327 | -73.87242 | 32775 ft | 391 kts | 237° |
| 2026-05-08 23:14 | 41.61551 | -73.89965 | 33227 ft | 387 kts | 237° |
| 2026-05-08 23:14 | 41.59791 | -73.92665 | 33616 ft | 384 kts | 237° |
| 2026-05-08 23:15 | 41.58041 | -73.95350 | 33950 ft | 384 kts | 238° |
| 2026-05-08 23:15 | 41.56297 | -73.98024 | 34320 ft | 381 kts | 237° |
| 2026-05-08 23:15 | 41.54572 | -74.00667 | 34645 ft | 381 kts | 238° |
| 2026-05-08 23:15 | 41.52847 | -74.03309 | 34942 ft | 381 kts | 237° |
| 2026-05-08 23:16 | 41.51093 | -74.05997 | 35187 ft | 383 kts | 237° |
| 2026-05-08 23:16 | 41.49359 | -74.08647 | 35491 ft | 382 kts | 237° |
| 2026-05-08 23:16 | 41.47620 | -74.11306 | 35725 ft | 383 kts | 237° |
| 2026-05-08 23:16 | 41.45854 | -74.14002 | 36022 ft | 383 kts | 237° |
| 2026-05-08 23:17 | 41.44118 | -74.16649 | 36298 ft | 382 kts | 237° |
| 2026-05-08 23:17 | 41.42387 | -74.19289 | 36495 ft | 384 kts | 237° |
| 2026-05-08 23:17 | 41.40625 | -74.21972 | 36747 ft | 383 kts | 237° |
| 2026-05-08 23:17 | 41.38883 | -74.24622 | 37008 ft | 382 kts | 237° |
| 2026-05-08 23:18 | 41.37134 | -74.27280 | 37237 ft | 382 kts | 237° |
| 2026-05-08 23:18 | 41.35366 | -74.29967 | 37404 ft | 384 kts | 237° |
| 2026-05-08 23:18 | 41.33618 | -74.32622 | 37586 ft | 384 kts | 237° |
| 2026-05-08 23:18 | 41.31859 | -74.35290 | 37763 ft | 385 kts | 237° |
| 2026-05-08 23:19 | 41.30103 | -74.37950 | 37933 ft | 386 kts | 237° |
| 2026-05-08 23:19 | 41.28346 | -74.40612 | 37939 ft | 387 kts | 237° |
| 2026-05-08 23:19 | 41.24783 | -74.46011 | 37937 ft | 385 kts | 238° |
| 2026-05-08 23:20 | 41.21631 | -74.51618 | 37943 ft | 379 kts | 242° |
| 2026-05-08 23:20 | 41.18533 | -74.57278 | 37948 ft | 381 kts | 241° |
| 2026-05-08 23:21 | 41.15398 | -74.62990 | 37950 ft | 386 kts | 242° |
| 2026-05-08 23:21 | 41.12235 | -74.68739 | 37960 ft | 389 kts | 241° |
| 2026-05-08 23:22 | 41.09038 | -74.74531 | 37949 ft | 390 kts | 240° |
| 2026-05-08 23:22 | 41.05832 | -74.80327 | 37955 ft | 394 kts | 241° |
| 2026-05-08 23:23 | 41.02571 | -74.86211 | 37952 ft | 398 kts | 240° |
| 2026-05-08 23:23 | 40.99306 | -74.92088 | 37955 ft | 399 kts | 240° |
| 2026-05-08 23:24 | 40.96104 | -74.98045 | 37955 ft | 395 kts | 244° |
| 2026-05-08 23:24 | 40.93173 | -75.04132 | 37957 ft | 393 kts | 244° |
| 2026-05-08 23:25 | 40.90236 | -75.10214 | 37956 ft | 392 kts | 245° |
| 2026-05-08 23:25 | 40.87302 | -75.16273 | 37957 ft | 392 kts | 244° |
| 2026-05-08 23:26 | 40.84368 | -75.22317 | 37898 ft | 391 kts | 244° |
| 2026-05-08 23:26 | 40.81433 | -75.28350 | 37953 ft | 392 kts | 244° |
| 2026-05-08 23:27 | 40.78508 | -75.34347 | 37957 ft | 390 kts | 244° |
| 2026-05-08 23:27 | 40.75737 | -75.40412 | 37970 ft | 384 kts | 249° |
| 2026-05-08 23:28 | 40.73394 | -75.46752 | 37959 ft | 386 kts | 250° |
| 2026-05-08 23:28 | 40.71041 | -75.53089 | 37957 ft | 386 kts | 250° |
| 2026-05-08 23:29 | 40.68694 | -75.59389 | 37964 ft | 385 kts | 250° |
| 2026-05-08 23:29 | 40.66336 | -75.65698 | 37960 ft | 383 kts | 249° |
| 2026-05-08 23:30 | 40.63994 | -75.71945 | 37957 ft | 383 kts | 249° |
| 2026-05-08 23:30 | 40.61633 | -75.78226 | 37952 ft | 382 kts | 250° |
| 2026-05-08 23:31 | 40.59295 | -75.84426 | 37955 ft | 382 kts | 249° |
| 2026-05-08 23:31 | 40.56921 | -75.90685 | 37954 ft | 381 kts | 250° |
| 2026-05-08 23:32 | 40.54571 | -75.96864 | 37954 ft | 380 kts | 249° |
| 2026-05-08 23:32 | 40.52216 | -76.03044 | 37952 ft | 379 kts | 250° |
| 2026-05-08 23:33 | 40.49858 | -76.09220 | 37953 ft | 379 kts | 249° |
| 2026-05-08 23:33 | 40.47503 | -76.15372 | 37956 ft | 378 kts | 249° |
| 2026-05-08 23:34 | 40.45142 | -76.21527 | 37956 ft | 377 kts | 250° |
| 2026-05-08 23:34 | 40.42801 | -76.27618 | 37955 ft | 377 kts | 250° |
| 2026-05-08 23:35 | 40.40436 | -76.33757 | 37956 ft | 376 kts | 250° |
| 2026-05-08 23:35 | 40.38079 | -76.39863 | 37959 ft | 376 kts | 249° |
| 2026-05-08 23:36 | 40.35739 | -76.45912 | 37957 ft | 375 kts | 249° |
| 2026-05-08 23:36 | 40.33365 | -76.51974 | 37956 ft | 374 kts | 250° |
| 2026-05-08 23:37 | 40.30957 | -76.57993 | 37952 ft | 373 kts | 249° |
| 2026-05-08 23:37 | 40.28561 | -76.63972 | 37947 ft | 372 kts | 249° |
| 2026-05-08 23:38 | 40.26147 | -76.69985 | 37949 ft | 373 kts | 249° |
| 2026-05-08 23:38 | 40.23750 | -76.75944 | 37950 ft | 372 kts | 249° |
| 2026-05-08 23:39 | 40.21331 | -76.81946 | 37945 ft | 371 kts | 249° |
| 2026-05-08 23:39 | 40.18942 | -76.87859 | 37945 ft | 370 kts | 249° |
| 2026-05-08 23:40 | 40.16534 | -76.93810 | 37941 ft | 369 kts | 249° |
| 2026-05-08 23:40 | 40.14144 | -76.99702 | 37945 ft | 368 kts | 249° |
| 2026-05-08 23:41 | 40.11748 | -77.05602 | 37949 ft | 368 kts | 249° |
| 2026-05-08 23:41 | 40.09352 | -77.11488 | 37940 ft | 368 kts | 249° |
| 2026-05-08 23:42 | 40.06959 | -77.17356 | 37935 ft | 367 kts | 249° |
| 2026-05-08 23:42 | 40.04583 | -77.23168 | 37948 ft | 365 kts | 249° |
| 2026-05-08 23:43 | 40.02200 | -77.28989 | 37944 ft | 364 kts | 249° |
| 2026-05-08 23:43 | 39.99829 | -77.34768 | 37942 ft | 363 kts | 249° |
| 2026-05-08 23:44 | 39.97448 | -77.40581 | 37941 ft | 362 kts | 250° |
| 2026-05-08 23:44 | 39.95931 | -77.46667 | 37945 ft | 352 kts | 264° |
| 2026-05-08 23:45 | 39.95840 | -77.52994 | 37947 ft | 350 kts | 272° |
| 2026-05-08 23:45 | 39.96055 | -77.59306 | 37948 ft | 350 kts | 272° |
| 2026-05-08 23:46 | 39.96261 | -77.65647 | 37947 ft | 350 kts | 271° |
| 2026-05-08 23:46 | 39.96461 | -77.71993 | 37942 ft | 350 kts | 271° |
| 2026-05-08 23:47 | 39.96655 | -77.78299 | 37938 ft | 349 kts | 271° |
| 2026-05-08 23:47 | 39.96843 | -77.84601 | 37934 ft | 349 kts | 271° |
| 2026-05-08 23:48 | 39.97027 | -77.90872 | 37934 ft | 348 kts | 271° |
| 2026-05-08 23:48 | 39.97206 | -77.97157 | 37944 ft | 348 kts | 271° |
| 2026-05-08 23:49 | 39.97382 | -78.03455 | 37936 ft | 348 kts | 272° |
| 2026-05-08 23:49 | 39.97553 | -78.09727 | 37944 ft | 348 kts | 271° |
| 2026-05-08 23:50 | 39.97721 | -78.15998 | 37954 ft | 348 kts | 271° |
| 2026-05-08 23:50 | 39.97884 | -78.22263 | 37955 ft | 348 kts | 271° |
| 2026-05-08 23:51 | 39.98045 | -78.28566 | 37955 ft | 349 kts | 271° |
| 2026-05-08 23:51 | 39.98203 | -78.34872 | 37952 ft | 349 kts | 271° |
| 2026-05-08 23:52 | 39.98357 | -78.41184 | 37953 ft | 349 kts | 271° |
| 2026-05-08 23:52 | 39.98507 | -78.47479 | 37955 ft | 349 kts | 271° |
| 2026-05-08 23:53 | 39.98653 | -78.53774 | 37946 ft | 349 kts | 271° |
| 2026-05-08 23:53 | 39.98798 | -78.60107 | 37953 ft | 350 kts | 271° |
| 2026-05-08 23:54 | 39.98938 | -78.66440 | 37954 ft | 351 kts | 271° |
| 2026-05-08 23:55 | 39.99143 | -78.75948 | 37957 ft | 352 kts | 270° |
| 2026-05-08 23:55 | 39.99275 | -78.82271 | 37953 ft | 351 kts | 270° |
| 2026-05-08 23:56 | 39.99404 | -78.88613 | 37949 ft | 351 kts | 270° |
| 2026-05-08 23:56 | 39.99530 | -78.94984 | 37949 ft | 351 kts | 270° |
| 2026-05-08 23:57 | 39.99651 | -79.01303 | 37954 ft | 352 kts | 270° |
| 2026-05-08 23:57 | 39.99771 | -79.07703 | 37938 ft | 352 kts | 270° |
| 2026-05-08 23:58 | 39.99887 | -79.14056 | 37954 ft | 352 kts | 270° |
| 2026-05-08 23:58 | 39.99999 | -79.20400 | 37951 ft | 352 kts | 270° |
| 2026-05-08 23:59 | 40.00107 | -79.26778 | 37938 ft | 353 kts | 270° |
| 2026-05-08 23:59 | 40.00212 | -79.33133 | 37926 ft | 352 kts | 270° |
| 2026-05-09 00:00 | 40.00313 | -79.39455 | 37931 ft | 352 kts | 270° |
| 2026-05-09 00:00 | 40.00411 | -79.45806 | 37936 ft | 351 kts | 270° |
| 2026-05-09 00:01 | 40.00506 | -79.52180 | 37932 ft | 352 kts | 270° |
| 2026-05-09 00:01 | 40.00597 | -79.58511 | 37932 ft | 352 kts | 270° |
| 2026-05-09 00:02 | 40.00684 | -79.64888 | 37895 ft | 353 kts | 269° |
| 2026-05-09 00:02 | 40.00727 | -79.68134 | 37544 ft | 359 kts | 269° |
| 2026-05-09 00:02 | 40.00769 | -79.71369 | 37183 ft | 358 kts | 270° |
| 2026-05-09 00:02 | 40.00811 | -79.74593 | 36801 ft | 355 kts | 270° |
| 2026-05-09 00:03 | 40.00851 | -79.77784 | 36435 ft | 354 kts | 269° |
| 2026-05-09 00:03 | 40.00890 | -79.80970 | 36072 ft | 353 kts | 270° |
| 2026-05-09 00:03 | 40.00928 | -79.84142 | 35722 ft | 353 kts | 270° |
| 2026-05-09 00:03 | 40.00966 | -79.87327 | 35369 ft | 353 kts | 270° |
| 2026-05-09 00:04 | 40.01002 | -79.90528 | 34987 ft | 353 kts | 270° |
| 2026-05-09 00:04 | 40.01038 | -79.93716 | 34602 ft | 353 kts | 270° |
| 2026-05-09 00:04 | 40.01073 | -79.96909 | 34230 ft | 353 kts | 270° |
| 2026-05-09 00:04 | 40.01107 | -80.00091 | 33858 ft | 354 kts | 270° |
| 2026-05-09 00:05 | 40.01140 | -80.03285 | 33484 ft | 355 kts | 270° |
| 2026-05-09 00:05 | 40.01173 | -80.06506 | 33109 ft | 356 kts | 270° |
| 2026-05-09 00:05 | 40.01204 | -80.09714 | 32741 ft | 356 kts | 270° |
| 2026-05-09 00:05 | 40.01235 | -80.12940 | 32367 ft | 356 kts | 271° |
| 2026-05-09 00:06 | 40.01265 | -80.16192 | 31996 ft | 356 kts | 271° |
| 2026-05-09 00:06 | 40.01294 | -80.19395 | 31626 ft | 356 kts | 271° |
| 2026-05-09 00:06 | 40.01322 | -80.22590 | 31245 ft | 356 kts | 271° |
| 2026-05-09 00:06 | 40.01350 | -80.25844 | 30869 ft | 357 kts | 271° |
| 2026-05-09 00:07 | 40.01376 | -80.29073 | 30494 ft | 357 kts | 271° |
| 2026-05-09 00:07 | 40.01402 | -80.32280 | 30114 ft | 357 kts | 271° |
| 2026-05-09 00:07 | 40.01426 | -80.35513 | 29729 ft | 357 kts | 271° |
| 2026-05-09 00:07 | 40.01450 | -80.38702 | 29362 ft | 356 kts | 271° |
| 2026-05-09 00:08 | 40.01473 | -80.41948 | 28990 ft | 359 kts | 271° |
| 2026-05-09 00:08 | 40.01496 | -80.45231 | 28600 ft | 365 kts | 271° |
| 2026-05-09 00:08 | 40.01518 | -80.48563 | 28229 ft | 370 kts | 271° |
| 2026-05-09 00:08 | 40.01539 | -80.51911 | 27855 ft | 370 kts | 271° |
| 2026-05-09 00:09 | 40.01559 | -80.55228 | 27483 ft | 368 kts | 271° |
| 2026-05-09 00:09 | 40.01577 | -80.58537 | 27116 ft | 367 kts | 271° |
| 2026-05-09 00:09 | 40.01595 | -80.61839 | 26738 ft | 365 kts | 272° |
| 2026-05-09 00:09 | 40.01613 | -80.65140 | 26371 ft | 364 kts | 271° |
| 2026-05-09 00:10 | 40.01628 | -80.68406 | 25994 ft | 362 kts | 271° |
| 2026-05-09 00:10 | 40.01643 | -80.71677 | 25624 ft | 361 kts | 271° |
| 2026-05-09 00:10 | 40.01657 | -80.74923 | 25247 ft | 360 kts | 271° |
| 2026-05-09 00:10 | 40.01671 | -80.78206 | 24870 ft | 359 kts | 271° |
| 2026-05-09 00:11 | 40.01582 | -80.81424 | 24495 ft | 359 kts | 264° |
| 2026-05-09 00:11 | 40.00875 | -80.84544 | 24115 ft | 363 kts | 253° |
| 2026-05-09 00:11 | 39.99929 | -80.87645 | 23723 ft | 373 kts | 253° |
| 2026-05-09 00:11 | 39.98967 | -80.90823 | 23363 ft | 383 kts | 253° |
| 2026-05-09 00:12 | 39.97987 | -80.94062 | 22989 ft | 387 kts | 253° |
| 2026-05-09 00:12 | 39.97012 | -80.97270 | 22620 ft | 385 kts | 252° |
| 2026-05-09 00:12 | 39.96022 | -81.00524 | 22242 ft | 383 kts | 253° |
| 2026-05-09 00:12 | 39.95048 | -81.03728 | 21871 ft | 382 kts | 253° |
| 2026-05-09 00:13 | 39.94081 | -81.06905 | 21501 ft | 380 kts | 252° |
| 2026-05-09 00:13 | 39.93111 | -81.10090 | 21119 ft | 379 kts | 252° |
| 2026-05-09 00:13 | 39.92135 | -81.13292 | 20751 ft | 377 kts | 252° |
| 2026-05-09 00:13 | 39.91175 | -81.16436 | 20372 ft | 376 kts | 252° |
| 2026-05-09 00:14 | 39.90207 | -81.19607 | 19994 ft | 374 kts | 252° |
| 2026-05-09 00:14 | 39.89251 | -81.22736 | 19619 ft | 373 kts | 252° |
| 2026-05-09 00:14 | 39.88300 | -81.25847 | 19252 ft | 372 kts | 252° |
| 2026-05-09 00:14 | 39.87343 | -81.28971 | 18874 ft | 371 kts | 252° |
| 2026-05-09 00:15 | 39.86398 | -81.32053 | 18509 ft | 370 kts | 252° |
| 2026-05-09 00:15 | 39.85443 | -81.35168 | 18128 ft | 369 kts | 252° |
| 2026-05-09 00:15 | 39.84497 | -81.38248 | 17754 ft | 368 kts | 252° |
| 2026-05-09 00:15 | 39.83550 | -81.41329 | 17385 ft | 367 kts | 252° |
| 2026-05-09 00:16 | 39.82607 | -81.44392 | 17009 ft | 367 kts | 252° |
| 2026-05-09 00:16 | 39.81657 | -81.47477 | 16633 ft | 365 kts | 252° |
| 2026-05-09 00:16 | 39.80734 | -81.50515 | 16266 ft | 364 kts | 252° |
| 2026-05-09 00:16 | 39.79843 | -81.53565 | 16018 ft | 362 kts | 252° |
| 2026-05-09 00:17 | 39.78947 | -81.56634 | 15971 ft | 363 kts | 252° |
| 2026-05-09 00:17 | 39.78048 | -81.59710 | 15978 ft | 364 kts | 252° |
| 2026-05-09 00:17 | 39.77148 | -81.62785 | 15976 ft | 364 kts | 252° |
| 2026-05-09 00:17 | 39.76253 | -81.65839 | 15978 ft | 364 kts | 251° |
| 2026-05-09 00:18 | 39.75353 | -81.68907 | 15983 ft | 364 kts | 252° |
| 2026-05-09 00:18 | 39.74448 | -81.71986 | 15976 ft | 364 kts | 251° |
| 2026-05-09 00:18 | 39.73550 | -81.75039 | 15979 ft | 364 kts | 252° |
| 2026-05-09 00:18 | 39.72649 | -81.78099 | 15979 ft | 364 kts | 252° |
| 2026-05-09 00:19 | 39.71751 | -81.81143 | 15976 ft | 364 kts | 251° |
| 2026-05-09 00:19 | 39.70840 | -81.84229 | 15972 ft | 364 kts | 252° |
| 2026-05-09 00:19 | 39.69938 | -81.87282 | 15981 ft | 364 kts | 251° |
| 2026-05-09 00:19 | 39.69031 | -81.90346 | 15924 ft | 365 kts | 251° |
| 2026-05-09 00:20 | 39.68127 | -81.93398 | 15576 ft | 366 kts | 251° |
| 2026-05-09 00:20 | 39.67220 | -81.96453 | 15166 ft | 361 kts | 251° |
| 2026-05-09 00:20 | 39.66320 | -81.99483 | 14729 ft | 360 kts | 251° |
| 2026-05-09 00:20 | 39.65425 | -82.02499 | 14306 ft | 364 kts | 251° |
| 2026-05-09 00:21 | 39.64500 | -82.05605 | 13865 ft | 366 kts | 251° |
| 2026-05-09 00:21 | 39.63696 | -82.08669 | 13428 ft | 364 kts | 258° |
| 2026-05-09 00:21 | 39.63506 | -82.11929 | 12945 ft | 361 kts | 274° |
| 2026-05-09 00:21 | 39.64066 | -82.15051 | 12483 ft | 361 kts | 289° |
| 2026-05-09 00:22 | 39.65307 | -82.17870 | 11959 ft | 362 kts | 303° |
| 2026-05-09 00:22 | 39.66800 | -82.20481 | 11548 ft | 356 kts | 303° |
| 2026-05-09 00:22 | 39.68227 | -82.22981 | 11132 ft | 338 kts | 303° |
| 2026-05-09 00:22 | 39.69587 | -82.25369 | 10742 ft | 322 kts | 303° |
| 2026-05-09 00:23 | 39.70877 | -82.27635 | 10318 ft | 304 kts | 303° |
| 2026-05-09 00:23 | 39.72096 | -82.29775 | 10004 ft | 282 kts | 302° |
| 2026-05-09 00:23 | 39.73224 | -82.31757 | 9707 ft | 269 kts | 302° |
| 2026-05-09 00:23 | 39.74472 | -82.33574 | 9366 ft | 272 kts | 314° |
| 2026-05-09 00:24 | 39.75935 | -82.35120 | 9029 ft | 270 kts | 316° |
| 2026-05-09 00:24 | 39.77379 | -82.36638 | 8703 ft | 269 kts | 316° |
| 2026-05-09 00:24 | 39.78814 | -82.38150 | 8382 ft | 263 kts | 315° |
| 2026-05-09 00:24 | 39.80254 | -82.39670 | 8062 ft | 266 kts | 315° |
| 2026-05-09 00:25 | 39.81686 | -82.41186 | 7740 ft | 269 kts | 315° |
| 2026-05-09 00:25 | 39.83133 | -82.42717 | 7415 ft | 269 kts | 315° |
| 2026-05-09 00:25 | 39.84585 | -82.44254 | 7096 ft | 268 kts | 315° |
| 2026-05-09 00:25 | 39.86021 | -82.45776 | 6776 ft | 268 kts | 315° |
| 2026-05-09 00:26 | 39.87481 | -82.47323 | 6453 ft | 267 kts | 315° |
| 2026-05-09 00:26 | 39.88918 | -82.48848 | 6128 ft | 268 kts | 315° |
| 2026-05-09 00:26 | 39.90349 | -82.50367 | 5818 ft | 267 kts | 315° |
| 2026-05-09 00:26 | 39.91760 | -82.51923 | 5505 ft | 264 kts | 309° |
| 2026-05-09 00:27 | 39.92932 | -82.53726 | 5178 ft | 259 kts | 303° |
| 2026-05-09 00:27 | 39.94030 | -82.55566 | 4852 ft | 258 kts | 302° |
| 2026-05-09 00:27 | 39.95130 | -82.57414 | 4512 ft | 258 kts | 302° |
| 2026-05-09 00:27 | 39.96212 | -82.59232 | 4149 ft | 252 kts | 303° |
| 2026-05-09 00:28 | 39.97244 | -82.61013 | 4004 ft | 236 kts | 297° |
| 2026-05-09 00:28 | 39.97751 | -82.62886 | 4008 ft | 208 kts | 273° |
| 2026-05-09 00:28 | 39.97863 | -82.64680 | 4011 ft | 193 kts | 271° |
| 2026-05-09 00:28 | 39.97968 | -82.66433 | 3999 ft | 192 kts | 270° |
| 2026-05-09 00:29 | 39.98071 | -82.68150 | 4006 ft | 184 kts | 270° |
| 2026-05-09 00:29 | 39.98168 | -82.69752 | 3966 ft | 177 kts | 270° |
| 2026-05-09 00:29 | 39.98250 | -82.71345 | 3636 ft | 177 kts | 270° |
| 2026-05-09 00:29 | 39.98334 | -82.72948 | 3254 ft | 175 kts | 270° |
| 2026-05-09 00:30 | 39.98424 | -82.74506 | 2858 ft | 174 kts | 271° |
| 2026-05-09 00:30 | 39.98513 | -82.76051 | 2543 ft | 168 kts | 271° |
| 2026-05-09 00:30 | 39.98598 | -82.77498 | 2291 ft | 150 kts | 271° |
| 2026-05-09 00:30 | 39.98674 | -82.78817 | 2102 ft | 148 kts | 271° |
| 2026-05-09 00:31 | 39.98748 | -82.80101 | 1936 ft | 134 kts | 272° |
| 2026-05-09 00:31 | 39.98818 | -82.81270 | 1723 ft | 126 kts | 272° |
| 2026-05-09 00:31 | 39.98890 | -82.82404 | 1552 ft | 124 kts | 272° |
| 2026-05-09 00:31 | 39.98941 | -82.83520 | 1409 ft | 124 kts | 272° |
| 2026-05-09 00:32 | 39.98998 | -82.84639 | 1252 ft | 125 kts | 272° |
| 2026-05-09 00:32 | 39.99076 | -82.85787 | 1077 ft | 127 kts | 272° |
| 2026-05-09 00:32 | 39.99131 | -82.86914 | 920 ft | 123 kts | 273° |
| 2026-05-09 00:32 | 39.99198 | -82.88010 | 816 ft | 114 kts | 273° |
| 2026-05-09 00:33 | 39.99242 | -82.88817 | 815 ft | 50 kts | 275° |
| 2026-05-09 00:33 | 39.99274 | -82.89085 | 814 ft | 21 kts | 308° |
| 2026-05-09 00:33 | 39.99355 | -82.89111 | 815 ft | 6 kts | 1° |
| 2026-05-09 00:33 | 39.99370 | -82.89111 | 815 ft | 0 kts | 0° |
| 2026-05-09 00:34 | 39.99372 | -82.89111 | 815 ft | 1 kts | 0° |
| 2026-05-09 00:34 | 39.99374 | -82.89111 | 815 ft | 0 kts | 360° |
| 2026-05-09 00:35 | 39.99388 | -82.89111 | 815 ft | 10 kts | 359° |
| 2026-05-09 00:35 | 39.99443 | -82.89144 | 815 ft | 10 kts | 314° |
| 2026-05-09 00:35 | 39.99499 | -82.89178 | 815 ft | 1 kts | 359° |
| 2026-05-09 00:35 | 39.99542 | -82.89191 | 815 ft | 9 kts | 317° |
| 2026-05-09 00:36 | 39.99564 | -82.89298 | 815 ft | 18 kts | 275° |
| 2026-05-09 00:36 | 39.99575 | -82.89485 | 814 ft | 22 kts | 273° |
| 2026-05-09 00:36 | 39.99585 | -82.89671 | 814 ft | 21 kts | 274° |
| 2026-05-09 00:36 | 39.99595 | -82.89872 | 813 ft | 23 kts | 272° |
| 2026-05-09 00:37 | 39.99608 | -82.90094 | 813 ft | 24 kts | 275° |
| 2026-05-09 00:37 | 39.99623 | -82.90326 | 813 ft | 26 kts | 274° |
| 2026-05-09 00:37 | 39.99633 | -82.90500 | 812 ft | 18 kts | 282° |
| 2026-05-09 00:37 | 39.99748 | -82.90545 | 813 ft | 20 kts | 4° |
| 2026-05-09 00:38 | 39.99887 | -82.90529 | 813 ft | 19 kts | 5° |
| 2026-05-09 00:38 | 40.00030 | -82.90516 | 814 ft | 21 kts | 4° |
| 2026-05-09 00:38 | 40.00126 | -82.90507 | 814 ft | 0 kts | 2° |
| 2026-05-09 00:39 | 40.00162 | -82.90506 | 815 ft | 12 kts | 1° |
| 2026-05-09 00:40 | 40.00209 | -82.90441 | 815 ft | 0 kts | 87° |
| 2026-05-09 00:40 | 40.00209 | -82.90436 | 815 ft | 0 kts | 85° |
| 2026-05-09 00:40 | 40.00207 | -82.90413 | 815 ft | 1 kts | 60° |
| 2026-05-09 00:41 | 40.00211 | -82.90409 | 815 ft | 0 kts | 18° |
| 2026-05-09 00:41 | 40.00254 | -82.90386 | 815 ft | 14 kts | 35° |
| 2026-05-09 00:41 | 40.00333 | -82.90309 | 815 ft | 13 kts | 25° |
| 2026-05-09 00:41 | 40.00406 | -82.90286 | 816 ft | 11 kts | 87° |
| 2026-05-09 00:42 | 40.00457 | -82.90215 | 816 ft | 14 kts | 1° |
| 2026-05-09 00:42 | 40.00557 | -82.90195 | 816 ft | 14 kts | 44° |
| 2026-05-09 00:42 | 40.00563 | -82.90074 | 816 ft | 12 kts | 85° |
| 2026-05-09 00:42 | 40.00601 | -82.90012 | 817 ft | 8 kts | 39° |
| 2026-05-09 00:43 | 40.00609 | -82.89985 | 817 ft | 1 kts | 96° |
| 2026-05-09 00:43 | 40.00609 | -82.89980 | 817 ft | 0 kts | 92° |